Teruhou Maru No.22 — JD3202 — position and weather

sailwx.info

Track history (hours):
 
Tides and Currents Weather Stations Pressure Air Temp Water Temp Dewpoint Dewpoint Depression Visibility Wind Speed Wind Dir Waves Ship Positions

Teruhou Maru No.22

Last reported at 2014-Jul-28 09:24 UTC. Time now 2014-Jul-29 19:02 UTC.
Position N 33°59' E 135°02'.

Length 76 m; draft 4 m.

Type: Cargo ship. MMSI: 431002552.

Date/timePositionNaut miles runAvg speedWind from/ knotsBaromVisibWave heightAir tempDewpointWater temp
2014-Jul-28 09:24N 33°59' E 135°02'1011.2
2014-Jul-28 08:29N 34°09' E 134°59'1212.8
2014-Jul-28 07:33N 34°21' E 134°59'1212.0
2014-Jul-28 06:33N 34°33' E 135°03'9 0.2
2014-Jul-26 05:26N 34°38' E 134°54'8 9.5
2014-Jul-26 04:33N 34°36' E 135°04'1211.5
2014-Jul-26 03:32N 34°38' E 135°18'7 7.5
2014-Jul-26 02:33N 34°40' E 135°27'0 0.0
2014-Jul-26 00:33N 34°40' E 135°27'4 4.2
2014-Jul-25 23:33N 34°37' E 135°23'0 0.1
2014-Jul-25 22:33N 34°37' E 135°23'0 0.1
2014-Jul-25 21:33N 34°37' E 135°23'0 0.0
2014-Jul-25 20:33N 34°37' E 135°23'0 0.0
2014-Jul-25 19:33N 34°37' E 135°23'0 0.0
2014-Jul-25 18:33N 34°37' E 135°23'0 0.0
2014-Jul-25 17:33N 34°37' E 135°23'0 0.0
2014-Jul-25 16:33N 34°37' E 135°23'0 0.0
2014-Jul-25 15:33N 34°37' E 135°23'0 0.0
2014-Jul-25 14:33N 34°37' E 135°23'0 0.0
2014-Jul-25 13:33N 34°37' E 135°23'0 0.0
2014-Jul-25 12:33N 34°37' E 135°23'0 0.0
2014-Jul-25 11:23N 34°37' E 135°23'0 0.0
2014-Jul-25 10:33N 34°37' E 135°23'0 0.0
2014-Jul-25 09:29N 34°37' E 135°23'0 0.0
2014-Jul-25 08:33N 34°37' E 135°23'0 0.0
2014-Jul-25 07:25N 34°37' E 135°23'0 0.0
2014-Jul-25 06:30N 34°37' E 135°23'0 0.0
2014-Jul-25 05:30N 34°37' E 135°23'0 0.0
2014-Jul-25 04:33N 34°37' E 135°23'0 0.0
2014-Jul-25 03:32N 34°37' E 135°23'0 0.0
2014-Jul-25 02:33N 34°37' E 135°23'0 0.0
2014-Jul-25 01:33N 34°37' E 135°23'4 3.8
2014-Jul-25 00:33N 34°35' E 135°27'0 0.1
2014-Jul-24 23:33N 34°35' E 135°27'0 0.0
2014-Jul-24 22:33N 34°35' E 135°27'0 0.3
2014-Jul-24 21:32N 34°35' E 135°27'0 0.0
2014-Jul-24 20:33N 34°35' E 135°27'0 0.0
2014-Jul-24 19:33N 34°35' E 135°27'0 0.0
2014-Jul-24 18:31N 34°35' E 135°27'0 0.0
2014-Jul-24 17:32N 34°35' E 135°27'0 0.0
2014-Jul-24 16:33N 34°35' E 135°27'0 0.0
2014-Jul-24 15:15N 34°35' E 135°27'0 0.0
2014-Jul-24 14:28N 34°35' E 135°27'5 5.4
2014-Jul-24 13:33N 34°36' E 135°21'1212.1
2014-Jul-24 12:33N 34°35' E 135°07'12610.3
2014-Jul-24 00:23N 33°57' E 132°42'  
2014-Jul-21 07:23N 34°37' E 134°54'1113.5
2014-Jul-21 06:33N 34°36' E 135°08'9 8.6
2014-Jul-21 05:33N 34°42' E 135°15'0 0.0
2014-Jul-21 04:33N 34°42' E 135°15'0 0.0
2014-Jul-21 03:33N 34°42' E 135°15'0 0.0
2014-Jul-21 02:33N 34°42' E 135°15'0 0.0
2014-Jul-21 01:33N 34°42' E 135°15'0 0.0
2014-Jul-21 00:33N 34°42' E 135°15'0 0.0
2014-Jul-20 23:33N 34°42' E 135°15'0 0.0
2014-Jul-20 22:33N 34°42' E 135°15'0 0.0
2014-Jul-20 21:33N 34°42' E 135°15'0 0.0
2014-Jul-20 20:33N 34°42' E 135°15'0 0.0
2014-Jul-20 19:33N 34°42' E 135°15'0 0.0
2014-Jul-20 18:33N 34°42' E 135°15'0 0.0
2014-Jul-20 17:33N 34°42' E 135°15'0 0.0
2014-Jul-20 16:33N 34°42' E 135°15'0 0.0
2014-Jul-20 15:33N 34°42' E 135°15'0 0.0
2014-Jul-20 14:33N 34°42' E 135°15'0 0.0
2014-Jul-20 13:33N 34°42' E 135°15'0 0.0
2014-Jul-20 12:33N 34°42' E 135°15'0 0.0
2014-Jul-20 11:33N 34°42' E 135°15'2 1.5
2014-Jul-20 10:33N 34°41' E 135°15'9 9.1
2014-Jul-20 09:33N 34°35' E 135°06'1510.9
2014-Jul-20 08:13N 34°40' E 134°50'10 1.0
2014-Jul-19 22:28N 34°37' E 135°01'9 9.5
2014-Jul-19 21:32N 34°28' E 135°03'1512.0
2014-Jul-19 20:18N 34°14' E 134°59'  
Track history (hours):
 
Tides and Currents Weather Stations Pressure Air Temp Water Temp Dewpoint Dewpoint Depression Visibility Wind Speed Wind Dir Waves Ship Positions

Teruhou Maru No.22

Last reported at 2014-Jul-28 09:24 UTC. Time now 2014-Jul-29 19:02 UTC.
Position N 33°59' E 135°02'.

Length 76 m; draft 4 m.

Type: Cargo ship. MMSI: 431002552.

Date/timePositionNaut miles runAvg speedWind from/ knotsBaromVisibWave heightAir tempDewpointWater temp
2014-Jul-28 09:24N 33°59' E 135°02'1011.2
2014-Jul-28 08:29N 34°09' E 134°59'1212.8
2014-Jul-28 07:33N 34°21' E 134°59'1212.0
2014-Jul-28 06:33N 34°33' E 135°03'9 0.2
2014-Jul-26 05:26N 34°38' E 134°54'8 9.5
2014-Jul-26 04:33N 34°36' E 135°04'1211.5
2014-Jul-26 03:32N 34°38' E 135°18'7 7.5
2014-Jul-26 02:33N 34°40' E 135°27'0 0.0
2014-Jul-26 00:33N 34°40' E 135°27'4 4.2
2014-Jul-25 23:33N 34°37' E 135°23'0 0.1
2014-Jul-25 22:33N 34°37' E 135°23'0 0.1
2014-Jul-25 21:33N 34°37' E 135°23'0 0.0
2014-Jul-25 20:33N 34°37' E 135°23'0 0.0
2014-Jul-25 19:33N 34°37' E 135°23'0 0.0
2014-Jul-25 18:33N 34°37' E 135°23'0 0.0
2014-Jul-25 17:33N 34°37' E 135°23'0 0.0
2014-Jul-25 16:33N 34°37' E 135°23'0 0.0
2014-Jul-25 15:33N 34°37' E 135°23'0 0.0
2014-Jul-25 14:33N 34°37' E 135°23'0 0.0
2014-Jul-25 13:33N 34°37' E 135°23'0 0.0
2014-Jul-25 12:33N 34°37' E 135°23'0 0.0
2014-Jul-25 11:23N 34°37' E 135°23'0 0.0
2014-Jul-25 10:33N 34°37' E 135°23'0 0.0
2014-Jul-25 09:29N 34°37' E 135°23'0 0.0
2014-Jul-25 08:33N 34°37' E 135°23'0 0.0
2014-Jul-25 07:25N 34°37' E 135°23'0 0.0
2014-Jul-25 06:30N 34°37' E 135°23'0 0.0
2014-Jul-25 05:30N 34°37' E 135°23'0 0.0
2014-Jul-25 04:33N 34°37' E 135°23'0 0.0
2014-Jul-25 03:32N 34°37' E 135°23'0 0.0
2014-Jul-25 02:33N 34°37' E 135°23'0 0.0
2014-Jul-25 01:33N 34°37' E 135°23'4 3.8
2014-Jul-25 00:33N 34°35' E 135°27'0 0.1
2014-Jul-24 23:33N 34°35' E 135°27'0 0.0
2014-Jul-24 22:33N 34°35' E 135°27'0 0.3
2014-Jul-24 21:32N 34°35' E 135°27'0 0.0
2014-Jul-24 20:33N 34°35' E 135°27'0 0.0
2014-Jul-24 19:33N 34°35' E 135°27'0 0.0
2014-Jul-24 18:31N 34°35' E 135°27'0 0.0
2014-Jul-24 17:32N 34°35' E 135°27'0 0.0
2014-Jul-24 16:33N 34°35' E 135°27'0 0.0
2014-Jul-24 15:15N 34°35' E 135°27'0 0.0
2014-Jul-24 14:28N 34°35' E 135°27'5 5.4
2014-Jul-24 13:33N 34°36' E 135°21'1212.1
2014-Jul-24 12:33N 34°35' E 135°07'12610.3
2014-Jul-24 00:23N 33°57' E 132°42'  
2014-Jul-21 07:23N 34°37' E 134°54'1113.5
2014-Jul-21 06:33N 34°36' E 135°08'9 8.6
2014-Jul-21 05:33N 34°42' E 135°15'0 0.0
2014-Jul-21 04:33N 34°42' E 135°15'0 0.0
2014-Jul-21 03:33N 34°42' E 135°15'0 0.0
2014-Jul-21 02:33N 34°42' E 135°15'0 0.0
2014-Jul-21 01:33N 34°42' E 135°15'0 0.0
2014-Jul-21 00:33N 34°42' E 135°15'0 0.0
2014-Jul-20 23:33N 34°42' E 135°15'0 0.0
2014-Jul-20 22:33N 34°42' E 135°15'0 0.0
2014-Jul-20 21:33N 34°42' E 135°15'0 0.0
2014-Jul-20 20:33N 34°42' E 135°15'0 0.0
2014-Jul-20 19:33N 34°42' E 135°15'0 0.0
2014-Jul-20 18:33N 34°42' E 135°15'0 0.0
2014-Jul-20 17:33N 34°42' E 135°15'0 0.0
2014-Jul-20 16:33N 34°42' E 135°15'0 0.0
2014-Jul-20 15:33N 34°42' E 135°15'0 0.0
2014-Jul-20 14:33N 34°42' E 135°15'0 0.0
2014-Jul-20 13:33N 34°42' E 135°15'0 0.0
2014-Jul-20 12:33N 34°42' E 135°15'0 0.0
2014-Jul-20 11:33N 34°42' E 135°15'2 1.5
2014-Jul-20 10:33N 34°41' E 135°15'9 9.1
2014-Jul-20 09:33N 34°35' E 135°06'1510.9
2014-Jul-20 08:13N 34°40' E 134°50'10 1.0
2014-Jul-19 22:28N 34°37' E 135°01'9 9.5
2014-Jul-19 21:32N 34°28' E 135°03'1512.0
2014-Jul-19 20:18N 34°14' E 134°59'  

Dump ship's entire track history